Time;durP1;ratioP1;P1;durP2;ratioP2;P2;SDS_P1;SDS_P2;PMS_P1;PMS_P2;Temp;Humidity;BMP_temperature;BMP_pressure;BME280_temperature;BME280_humidity;BME280_pressure;Samples;Min_cycle;Max_cycle;Signal;HPM_P1;HPM_P2
2021/04/28 00:01:12;;;;;;;37.30;15.40;;;;;;;1.62;44.16;98628.14;124692;1097;64467;-78
2021/04/28 00:03:57;;;;;;;;;;;;;;;;;;;;;
2021/04/28 00:06:24;;;;;;;33.73;14.00;;;;;;;1.61;43.97;98626.43;124458;1104;64837;-80
2021/04/28 00:08:53;;;;;;;33.30;15.00;;;;;;;1.63;43.74;98626.36;124530;1102;64319;-79
2021/04/28 00:11:27;;;;;;;33.23;15.03;;;;;;;1.62;44.10;98624.66;124795;1097;64349;-78
2021/04/28 00:13:54;;;;;;;30.50;13.70;;;;;;;1.59;44.67;98627.40;125403;1101;64169;-76
2021/04/28 00:16:24;;;;;;;38.43;15.30;;;;;;;1.55;44.20;98618.80;124486;1102;64412;-79
2021/04/28 00:19:11;;;;;;;44.30;16.00;;;;;;;1.51;44.48;98613.72;124512;1097;64317;-79
2021/04/28 00:21:39;;;;;;;36.57;16.17;;;;;;;1.47;44.03;98618.27;124657;1103;64320;-76
2021/04/28 00:24:12;;;;;;;36.33;15.37;;;;;;;1.42;44.18;98619.38;124512;1101;64421;-80
2021/04/28 00:26:42;;;;;;;35.40;15.10;;;;;;;1.41;44.72;98610.64;124883;1101;64491;-77
2021/04/28 00:29:14;;;;;;;37.67;16.43;;;;;;;1.40;44.58;98608.05;124747;1101;64291;-78
2021/04/28 00:31:44;;;;;;;38.37;17.57;;;;;;;1.38;44.80;98599.38;124805;1101;64319;-76
2021/04/28 00:34:17;;;;;;;36.73;16.93;;;;;;;1.38;44.46;98602.00;125014;1096;64320;-81
2021/04/28 00:37:32;;;;;;;;;;;;;;;;;;;;;
2021/04/28 00:40:24;;;;;;;42.03;17.23;;;;;;;1.40;44.50;98595.78;124720;1097;64449;-79
2021/04/28 00:42:53;;;;;;;38.45;17.85;;;;;;;1.43;44.55;98597.41;124833;1101;64371;-83
2021/04/28 00:45:33;;;;;;;48.00;17.63;;;;;;;1.45;44.65;98591.15;124822;1102;64349;-77
2021/04/28 00:48:06;;;;;;;38.17;17.00;;;;;;;1.46;44.72;98589.38;124757;1096;64253;-82
2021/04/28 00:50:39;;;;;;;36.85;16.55;;;;;;;1.43;45.01;98590.38;124814;1096;64256;-77
2021/04/28 00:53:12;;;;;;;43.37;17.10;;;;;;;1.40;44.85;98584.37;124590;1102;64261;-82
2021/04/28 00:56:22;;;;;;;36.77;16.83;;;;;;;1.37;44.70;98585.37;124922;1101;64323;-80
2021/04/28 00:58:55;;;;;;;36.50;16.55;;;;;;;1.37;45.03;98589.77;124919;1101;64330;-80
2021/04/28 01:01:46;;;;;;;43.60;18.13;;;;;;;1.35;44.74;98588.07;124538;1097;64373;-79
2021/04/28 01:04:22;;;;;;;38.87;16.50;;;;;;;1.37;45.17;98585.37;124580;1101;64188;-82
2021/04/28 01:06:53;;;;;;;37.10;16.33;;;;;;;1.37;45.59;98579.25;124501;1103;64387;-80
2021/04/28 01:09:30;;;;;;;36.50;16.33;;;;;;;1.35;45.18;98581.95;125702;1101;64352;-78
2021/04/28 01:12:12;;;;;;;;;;;;;;;;;;;;;
2021/04/28 01:14:44;;;;;;;46.20;18.70;;;;;;;1.34;44.99;98578.47;124570;1097;64416;-77
2021/04/28 01:17:13;;;;;;;41.10;16.13;;;;;;;1.33;45.64;98582.00;124558;1096;64323;-79
2021/04/28 01:19:40;;;;;;;52.20;20.20;;;;;;;1.33;45.46;98582.00;124722;1101;64316;-82
2021/04/28 01:23:13;;;;;;;41.40;19.57;;;;;;;1.36;45.06;98583.66;124520;1102;64339;-81
2021/04/28 01:26:18;;;;;;;37.00;15.97;;;;;;;1.40;45.87;98584.37;124351;1108;64284;-78
2021/04/28 01:29:25;;;;;;;38.57;16.33;;;;;;;1.39;45.45;98585.30;124038;1108;64329;-78
2021/04/28 01:32:01;;;;;;;34.90;16.17;;;;;;;1.42;46.13;98577.29;124037;1107;64506;-79
2021/04/28 01:34:49;;;;;;;38.17;16.50;;;;;;;1.48;45.70;98577.03;124007;1102;64275;-78
2021/04/28 01:37:34;;;;;;;;;;;;;;;;;;;;;
2021/04/28 01:40:06;;;;;;;35.23;15.33;;;;;;;1.56;45.75;98573.13;123814;1102;64314;-79
2021/04/28 01:42:33;;;;;;;32.87;15.57;;;;;;;1.57;45.28;98571.35;124012;1108;64744;-77
2021/04/28 01:45:23;;;;;;;34.70;16.13;;;;;;;1.52;45.56;98566.28;123885;1103;64511;-80
2021/04/28 01:47:53;;;;;;;36.75;16.15;;;;;;;1.46;45.35;98565.69;123845;1108;64492;-77
2021/04/28 01:50:22;;;;;;;42.75;18.20;;;;;;;1.39;45.48;98574.77;123916;1108;64336;-79
2021/04/28 01:53:06;;;;;;;34.60;17.07;;;;;;;1.28;45.75;98565.58;123803;1103;64408;-80
2021/04/28 01:55:38;;;;;;;46.23;16.73;;;;;;;1.18;45.87;98558.13;124158;1108;64268;-79
2021/04/28 01:58:24;;;;;;;43.33;16.87;;;;;;;1.10;45.53;98561.09;124607;1108;64307;-76
2021/04/28 02:01:15;;;;;;;37.95;16.60;;;;;;;0.97;45.75;98552.85;123883;1102;64533;-78
2021/04/28 02:03:51;;;;;;;46.90;17.70;;;;;;;0.87;46.62;98553.28;124345;1104;64248;-78
2021/04/28 02:06:44;;;;;;;40.57;17.87;;;;;;;0.79;45.86;98559.71;124485;1104;64323;-79
2021/04/28 02:09:17;;;;;;;43.30;18.40;;;;;;;0.70;45.84;98552.21;124646;1105;64853;-81
2021/04/28 02:11:47;;;;;;;38.37;17.90;;;;;;;0.60;46.39;98544.75;124659;1102;64320;-81
2021/04/28 02:14:20;;;;;;;45.50;19.87;;;;;;;0.56;46.53;98546.63;124842;1101;64233;-76
2021/04/28 02:17:40;;;;;;;48.70;20.80;;;;;;;0.58;46.93;98536.94;124622;1104;64332;-78
2021/04/28 02:21:11;;;;;;;48.87;21.00;;;;;;;0.63;46.46;98540.20;124483;1096;64274;-77
2021/04/28 02:23:56;;;;;;;;;;;;;;;0.65;46.39;98541.02;124450;1104;64312;-76
2021/04/28 02:26:23;;;;;;;48.80;20.40;;;;;;;0.68;46.69;98545.28;124524;1104;64342;-80
2021/04/28 02:29:11;;;;;;;44.53;19.70;;;;;;;0.70;47.00;98535.56;124494;1104;64358;-79
2021/04/28 02:31:42;;;;;;;45.80;19.27;;;;;;;0.72;46.63;98533.75;124419;1104;64402;-77
2021/04/28 02:34:10;;;;;;;50.25;19.90;;;;;;;0.72;46.71;98537.23;124426;1104;64511;-81
2021/04/28 02:36:55;;;;;;;45.53;20.63;;;;;;;0.70;47.50;98532.93;124555;1104;64482;-79
2021/04/28 02:39:46;;;;;;;48.87;20.43;;;;;;;0.66;46.61;98534.84;124526;1104;64259;-79
2021/04/28 02:42:16;;;;;;;51.17;25.77;;;;;;;0.61;46.45;98528.91;124362;1105;64244;-79
2021/04/28 02:44:51;;;;;;;58.73;23.27;;;;;;;0.56;46.84;98532.64;124471;1098;64385;-77
2021/04/28 02:47:24;;;;;;;43.17;19.10;;;;;;;0.55;47.23;98523.91;124699;1106;64427;-79
2021/04/28 02:49:56;;;;;;;46.55;21.60;;;;;;;0.60;47.16;98523.73;124551;1100;64507;-79
2021/04/28 02:52:58;;;;;;;47.60;21.58;;;;;;;0.65;47.45;98517.38;124364;1104;64393;-81
2021/04/28 02:55:31;;;;;;;49.43;21.73;;;;;;;0.72;46.84;98515.34;124301;1105;64378;-78
2021/04/28 02:58:00;;;;;;;48.70;21.15;;;;;;;0.78;47.29;98521.20;124453;1104;64943;-79
2021/04/28 03:00:36;;;;;;;50.17;20.13;;;;;;;0.84;47.35;98514.84;124288;1096;64233;-78
2021/04/28 03:03:25;;;;;;;46.50;21.37;;;;;;;0.88;47.18;98513.78;124526;1102;64351;-81
2021/04/28 03:05:58;;;;;;;47.93;22.10;;;;;;;0.93;47.78;98511.82;124923;1102;64354;-78
2021/04/28 03:08:41;;;;;;;50.40;22.50;;;;;;;0.96;47.50;98505.59;124510;1097;64410;-79
2021/04/28 03:11:09;;;;;;;47.43;22.20;;;;;;;0.97;47.25;98507.30;124570;1103;64850;-77
2021/04/28 03:13:39;;;;;;;53.90;22.70;;;;;;;0.99;47.08;98511.56;124768;1096;64314;-78
2021/04/28 03:16:07;;;;;;;54.40;22.35;;;;;;;1.00;47.70;98507.16;124523;1101;64262;-77
2021/04/28 03:18:37;;;;;;;53.10;21.60;;;;;;;1.04;47.40;98506.13;124522;1096;64307;-76
2021/04/28 03:21:08;;;;;;;57.07;22.43;;;;;;;1.07;47.38;98505.97;125030;1101;64384;-77
2021/04/28 03:24:07;;;;;;;;;;;;;;;;;;;;;
2021/04/28 03:26:48;;;;;;;;;;;;;;;;;;;;;
2021/04/28 03:29:31;;;;;;;;;;;;;;;;;;;;;
2021/04/28 03:31:59;;;;;;;57.80;24.53;;;;;;;1.25;47.84;98499.93;124934;1101;64262;-76
2021/04/28 03:35:02;;;;;;;52.47;23.47;;;;;;;1.30;47.98;98495.33;124161;1104;64377;-77
2021/04/28 03:37:43;;;;;;;51.80;23.60;;;;;;;1.34;47.43;98502.18;124446;1099;64776;-80
2021/04/28 03:40:36;;;;;;;62.23;26.37;;;;;;;1.39;47.41;98498.47;124513;1100;64355;-80
2021/04/28 03:43:04;;;;;;;52.40;24.33;;;;;;;1.45;47.26;98498.20;124435;1104;64329;-78
2021/04/28 03:45:44;;;;;;;;;;;;;;;;;;;;;
2021/04/28 03:48:37;;;;;;;62.40;27.55;;;;;;;1.51;47.30;98490.89;124562;1100;64355;-77
2021/04/28 03:51:20;;;;;;;67.80;28.13;;;;;;;1.59;47.53;98493.17;124159;1105;64457;-77
2021/04/28 03:54:06;;;;;;;102.30;36.33;;;;;;;1.60;47.49;98502.81;124256;1105;64354;-80
2021/04/28 03:56:33;;;;;;;95.73;36.40;;;;;;;1.58;47.54;98502.00;124415;1104;64323;-77
2021/04/28 03:59:11;;;;;;;85.30;32.90;;;;;;;1.60;48.10;98500.17;124966;1100;64387;-80
2021/04/28 04:01:53;;;;;;;87.90;35.40;;;;;;;1.69;48.13;98498.90;124634;1099;64326;-78
2021/04/28 04:04:23;;;;;;;95.30;35.50;;;;;;;1.76;48.32;98501.17;124403;1104;64406;-78
2021/04/28 04:07:20;;;;;;;;;;;;;;;;;;;;;
2021/04/28 04:10:23;;;;;;;80.20;31.97;;;;;;;1.89;48.03;98507.59;124648;1104;64441;-82
2021/04/28 04:14:04;;;;;;;;;;;;;;;;;;;;;
2021/04/28 04:16:52;;;;;;;;;;;;;;;;;;;;;
2021/04/28 04:19:41;;;;;;;93.35;31.50;;;;;;;2.23;48.76;98495.52;124014;1103;64393;-81
2021/04/28 04:22:19;;;;;;;84.23;32.43;;;;;;;2.31;48.60;98495.14;124400;1103;64494;-79
2021/04/28 04:28:07;;;;;;;68.13;29.67;;;;;;;2.46;48.40;98493.55;123785;1103;64250;-81
2021/04/28 04:31:10;;;;;;;67.00;29.60;;;;;;;2.52;48.45;98498.52;123772;1111;64608;-79
2021/04/28 04:34:35;;;;;;;;;;;;;;;;;;;;;
2021/04/28 04:37:32;;;;;;;;;;;;;;;;;;;;;
2021/04/28 04:40:24;;;;;;;55.77;25.97;;;;;;;2.78;48.30;98495.45;123784;1106;64326;-79
2021/04/28 04:43:10;;;;;;;60.23;27.30;;;;;;;2.92;48.46;98502.68;124086;1111;64365;-79
2021/04/28 04:45:50;;;;;;;70.63;28.90;;;;;;;3.06;48.28;98502.02;124118;1111;64533;-79
2021/04/28 04:48:23;;;;;;;58.97;26.20;;;;;;;3.16;48.36;98503.23;124007;1107;64410;-78
2021/04/28 04:50:50;;;;;;;60.80;26.03;;;;;;;3.26;48.71;98501.84;124047;1108;64470;-80
2021/04/28 04:53:27;;;;;;;59.45;26.00;;;;;;;3.34;48.60;98507.58;124192;1099;64355;-77
2021/04/28 04:56:03;;;;;;;57.57;24.80;;;;;;;3.40;48.49;98507.27;124509;1100;64554;-79
2021/04/28 04:58:30;;;;;;;61.87;26.73;;;;;;;3.46;48.76;98504.30;124457;1104;64400;-77
2021/04/28 05:01:00;;;;;;;58.90;25.87;;;;;;;3.51;48.26;98511.99;124434;1100;64560;-78
2021/04/28 05:03:33;;;;;;;52.73;25.17;;;;;;;3.57;48.44;98513.47;124454;1100;64531;-79
2021/04/28 05:06:04;;;;;;;59.50;25.23;;;;;;;3.59;48.61;98501.03;124506;1096;64376;-77
2021/04/28 05:08:51;;;;;;;48.63;23.77;;;;;;;3.61;48.62;98504.43;124513;1097;64400;-81
2021/04/28 05:11:34;;;;;;;;;;;;;;;;;;;;;
2021/04/28 05:14:52;;;;;;;;;;;;;;;;;;;;;
2021/04/28 05:17:44;;;;;;;55.00;24.30;;;;;;;3.70;48.77;98501.32;125188;1100;64332;-80
2021/04/28 05:20:27;;;;;;;48.87;23.10;;;;;;;3.77;48.72;98507.98;124570;1099;64282;-83
2021/04/28 05:23:03;;;;;;;47.57;23.97;;;;;;;3.87;48.78;98503.89;124546;1105;64256;-82
2021/04/28 05:26:13;;;;;;;51.17;23.63;;;;;;;3.99;48.69;98491.81;124418;1100;64367;-82
2021/04/28 05:28:49;;;;;;;65.05;27.60;;;;;;;4.07;48.77;98489.59;124521;1105;64805;-81
2021/04/28 05:31:26;;;;;;;;;;;;;;;;;;;;;
2021/04/28 05:33:59;;;;;;;64.77;25.40;;;;;;;4.31;48.74;98490.89;124901;1099;64358;-84
2021/04/28 05:36:26;;;;;;;61.07;25.73;;;;;;;4.42;48.75;98489.45;124491;1099;64455;-81
2021/04/28 05:38:59;;;;;;;53.03;25.67;;;;;;;4.50;48.56;98482.78;124442;1104;64498;-83
2021/04/28 05:41:27;;;;;;;55.30;24.70;;;;;;;4.65;49.02;98482.88;124905;1100;64293;-83
2021/04/28 05:44:00;;;;;;;57.10;25.47;;;;;;;4.82;49.00;98482.73;124698;1104;64747;-87
2021/04/28 05:46:27;;;;;;;64.43;26.10;;;;;;;5.01;48.66;98483.37;124124;1100;64316;-83
2021/04/28 05:48:59;;;;;;;62.23;26.23;;;;;;;5.19;49.12;98486.73;124459;1100;64397;-87
2021/04/28 05:51:37;;;;;;;61.15;27.50;;;;;;;5.37;48.76;98482.99;124107;1105;64568;-84
2021/04/28 05:54:07;;;;;;;59.97;25.10;;;;;;;5.52;49.04;98486.50;124555;1101;64528;-83
2021/04/28 05:56:38;;;;;;;52.77;25.27;;;;;;;5.67;48.84;98490.89;124804;1101;64314;-81
2021/04/28 05:59:10;;;;;;;48.23;24.70;;;;;;;5.84;48.82;98487.18;124547;1102;64310;-87
2021/04/28 06:01:40;;;;;;;53.30;24.90;;;;;;;6.06;49.04;98478.80;124880;1096;64314;-82
2021/04/28 06:04:18;;;;;;;51.37;24.53;;;;;;;6.27;49.14;98483.68;124557;1096;64323;-82
2021/04/28 06:06:54;;;;;;;52.90;26.43;;;;;;;6.46;49.06;98485.05;124859;1101;64314;-85
2021/04/28 06:09:44;;;;;;;49.93;24.07;;;;;;;6.63;49.23;98478.66;124589;1097;64397;-83
2021/04/28 06:12:41;;;;;;;;;;;;;;;;;;;;;
2021/04/28 06:15:15;;;;;;;54.97;26.37;;;;;;;7.02;49.55;98471.67;124666;1096;64316;-81
2021/04/28 06:17:43;;;;;;;46.33;24.87;;;;;;;7.26;48.79;98470.03;124601;1103;64239;-81
2021/04/28 06:20:13;;;;;;;52.37;25.87;;;;;;;7.46;48.34;98467.81;124878;1097;64317;-80
2021/04/28 06:22:44;;;;;;;47.47;24.73;;;;;;;7.61;48.88;98471.21;124662;1097;64416;-83
2021/04/28 06:25:13;;;;;;;50.47;25.47;;;;;;;7.82;48.91;98470.58;124978;1097;64313;-81
2021/04/28 06:28:14;;;;;;;;;;;;;;;;;;;;;
2021/04/28 06:30:41;;;;;;;49.77;25.77;;;;;;;8.44;48.92;98451.09;124872;1101;64231;-81
2021/04/28 06:33:12;;;;;;;50.47;24.20;;;;;;;8.72;48.81;98457.92;124636;1104;64289;-81
2021/04/28 06:35:42;;;;;;;54.27;26.30;;;;;;;8.82;48.47;98453.59;124568;1096;64320;-81
2021/04/28 06:38:09;;;;;;;55.70;27.20;;;;;;;9.04;48.58;98454.67;124669;1102;64447;-84
2021/04/28 06:40:41;;;;;;;51.10;26.40;;;;;;;9.35;48.73;98453.16;124869;1101;64394;-84
2021/04/28 06:43:09;;;;;;;50.40;25.05;;;;;;;9.52;48.64;98449.21;124660;1101;64342;-80
2021/04/28 06:45:48;;;;;;;55.07;24.80;;;;;;;9.63;48.41;98447.42;124848;1097;64294;-81
2021/04/28 06:48:30;;;;;;;52.17;24.20;;;;;;;9.76;48.33;98449.97;124778;1101;64326;-81
2021/04/28 06:51:00;;;;;;;45.50;23.03;;;;;;;9.78;48.41;98445.36;124589;1102;64224;-83
2021/04/28 06:53:27;;;;;;;40.50;21.95;;;;;;;9.93;48.25;98438.84;124877;1096;64265;-81
2021/04/28 06:55:58;;;;;;;42.67;23.30;;;;;;;10.19;48.60;98436.75;124880;1096;64464;-86
2021/04/28 06:58:38;;;;;;;46.47;24.17;;;;;;;10.52;48.25;98435.02;124774;1101;64318;-82
2021/04/28 07:01:11;;;;;;;45.10;22.77;;;;;;;10.65;48.18;98429.53;124565;1097;64329;-83
2021/04/28 07:03:40;;;;;;;42.73;22.20;;;;;;;10.95;48.06;98418.98;124557;1101;64300;-84
2021/04/28 07:06:11;;;;;;;40.60;21.95;;;;;;;11.04;47.71;98426.20;124840;1096;64313;-84
2021/04/28 07:08:38;;;;;;;36.20;21.47;;;;;;;11.22;48.05;98422.97;124598;1096;64224;-80
2021/04/28 07:11:08;;;;;;;41.37;21.83;;;;;;;11.28;47.88;98422.45;124632;1102;64364;-84
2021/04/28 07:13:35;;;;;;;43.53;21.43;;;;;;;11.28;47.91;98417.10;124845;1097;64310;-82
2021/04/28 07:16:04;;;;;;;39.07;21.17;;;;;;;11.27;47.99;98420.76;124897;1097;64346;-82
2021/04/28 07:19:01;;;;;;;43.93;21.63;;;;;;;11.34;48.28;98416.58;124773;1096;64483;-82
2021/04/28 07:21:42;;;;;;;44.77;21.37;;;;;;;11.64;48.23;98408.60;124877;1101;64619;-82
2021/04/28 07:24:10;;;;;;;38.00;20.20;;;;;;;12.12;47.91;98407.97;124550;1096;64349;-82
2021/04/28 07:26:37;;;;;;;36.47;20.33;;;;;;;12.50;47.86;98409.05;124804;1096;64409;-82
2021/04/28 07:29:04;;;;;;;39.20;20.47;;;;;;;12.87;47.43;98406.55;124533;1096;64368;-86
2021/04/28 07:31:32;;;;;;;38.53;20.50;;;;;;;13.15;47.66;98406.67;124614;1101;64316;-80
2021/04/28 07:34:00;;;;;;;34.83;21.03;;;;;;;13.42;47.61;98406.83;124555;1101;64429;-81
2021/04/28 07:36:28;;;;;;;36.63;21.37;;;;;;;13.66;47.68;98411.69;124764;1101;64310;-85
2021/04/28 07:38:55;;;;;;;41.00;20.90;;;;;;;13.76;46.63;98407.16;124830;1101;64288;-80
2021/04/28 07:41:22;;;;;;;32.23;19.53;;;;;;;13.61;46.71;98408.59;124806;1096;64307;-82
2021/04/28 07:44:01;;;;;;;33.47;20.03;;;;;;;13.67;47.55;98401.80;124798;1095;64406;-85
2021/04/28 07:46:28;;;;;;;35.17;19.87;;;;;;;13.92;47.50;98394.94;124775;1101;64486;-82
2021/04/28 07:48:55;;;;;;;32.60;19.05;;;;;;;14.16;47.58;98394.41;124804;1097;64294;-85
2021/04/28 07:51:23;;;;;;;31.33;17.97;;;;;;;14.47;47.68;98393.13;124783;1101;64319;-82
2021/04/28 07:53:53;;;;;;;32.13;17.90;;;;;;;14.69;47.33;98388.30;124819;1101;64310;-85
2021/04/28 07:56:20;;;;;;;32.83;18.80;;;;;;;14.88;47.29;98378.23;124887;1096;64294;-85
2021/04/28 07:58:47;;;;;;;32.40;17.57;;;;;;;15.05;47.49;98383.78;124753;1101;64412;-82
2021/04/28 08:01:14;;;;;;;34.70;17.37;;;;;;;15.18;47.06;98383.38;124957;1096;64311;-85
2021/04/28 08:03:41;;;;;;;32.17;18.30;;;;;;;15.15;46.71;98379.17;124832;1096;64344;-82
2021/04/28 08:06:08;;;;;;;28.67;18.27;;;;;;;15.28;47.34;98378.77;124602;1096;64288;-82
2021/04/28 08:08:35;;;;;;;31.00;18.40;;;;;;;15.50;47.11;98383.61;124858;1096;64233;-78
2021/04/28 08:11:12;;;;;;;34.87;16.47;;;;;;;15.61;46.74;98377.13;124534;1101;64373;-84
2021/04/28 08:13:39;;;;;;;27.33;17.03;;;;;;;15.65;46.73;98368.63;124813;1101;64259;-84
2021/04/28 08:16:07;;;;;;;28.60;17.00;;;;;;;15.74;46.92;98363.27;124614;1102;64317;-82
2021/04/28 08:18:34;;;;;;;76.77;36.83;;;;;;;15.91;46.49;98365.89;124912;1101;64303;-80
2021/04/28 08:21:02;;;;;;;26.80;16.60;;;;;;;16.08;46.91;98360.56;124821;1101;64236;-86
2021/04/28 08:23:30;;;;;;;34.80;21.50;;;;;;;16.29;46.85;98358.30;124947;1096;64387;-83
2021/04/28 08:26:01;;;;;;;29.83;17.03;;;;;;;16.36;46.44;98358.48;124805;1101;64317;-78
2021/04/28 08:28:34;;;;;;;24.27;16.20;;;;;;;16.48;46.92;98358.02;124540;1101;64332;-82
2021/04/28 08:31:01;;;;;;;43.57;23.63;;;;;;;16.63;46.31;98350.12;124746;1096;64329;-82
2021/04/28 08:33:27;;;;;;;34.63;18.43;;;;;;;16.71;46.54;98355.55;124759;1097;64231;-82
2021/04/28 08:35:57;;;;;;;30.70;17.80;;;;;;;16.81;46.06;98346.48;124813;1101;64415;-81
2021/04/28 08:38:24;;;;;;;31.75;16.70;;;;;;;16.82;45.34;98349.00;124598;1097;64289;-80
2021/04/28 08:40:52;;;;;;;27.27;17.80;;;;;;;16.88;46.25;98347.48;124590;1102;64323;-83
2021/04/28 08:43:37;;;;;;;32.13;18.90;;;;;;;16.93;45.93;98351.38;124781;1096;64303;-81
2021/04/28 08:46:06;;;;;;;46.30;21.70;;;;;;;17.09;46.34;98352.38;124969;1097;64326;-82
2021/04/28 08:48:34;;;;;;;42.37;21.83;;;;;;;17.29;45.93;98351.00;124954;1101;64489;-80
2021/04/28 08:51:04;;;;;;;33.63;18.33;;;;;;;17.37;46.18;98344.75;124772;1096;64343;-82
2021/04/28 08:53:32;;;;;;;30.23;17.20;;;;;;;17.61;46.45;98346.56;124818;1101;64403;-80
2021/04/28 08:56:22;;;;;;;;;;;;;;;;;;;;;
2021/04/28 08:59:05;;;;;;;20.70;12.43;;;;;;;18.09;46.19;98337.50;124799;1096;64355;-83
2021/04/28 09:01:35;;;;;;;18.17;10.77;;;;;;;18.31;46.12;98325.89;124825;1101;64310;-81
2021/04/28 09:04:23;;;;;;;21.37;11.47;;;;;;;18.37;45.44;98335.99;124697;1096;64320;-81
2021/04/28 09:07:05;;;;;;;14.17;10.07;;;;;;;18.51;45.79;98333.55;124887;1097;64313;-86
2021/04/28 09:09:33;;;;;;;17.67;9.23;;;;;;;18.67;45.59;98325.38;124874;1096;64323;-79
2021/04/28 09:12:02;;;;;;;15.90;7.23;;;;;;;18.60;44.79;98316.27;124629;1103;64234;-78
2021/04/28 09:14:58;;;;;;;9.65;6.00;;;;;;;18.57;45.26;98322.02;124611;1102;64316;-80
2021/04/28 09:17:25;;;;;;;;;;;;;;;18.63;44.81;98319.44;124851;1101;64307;-83
2021/04/28 09:20:33;;;;;;;8.63;5.73;;;;;;;18.76;45.15;98318.88;124639;1101;64318;-81
2021/04/28 09:23:28;;;;;;;9.63;5.67;;;;;;;18.87;44.87;98306.80;124944;1101;64416;-82
2021/04/28 09:26:17;;;;;;;8.15;6.00;;;;;;;18.89;44.19;98310.15;125127;1096;64203;-79
2021/04/28 09:29:17;;;;;;;11.57;6.10;;;;;;;18.88;44.02;98300.35;124764;1101;64409;-82
2021/04/28 09:32:01;;;;;;;9.00;5.77;;;;;;;18.93;44.19;98303.36;125386;1103;64243;-81
2021/04/28 09:34:47;;;;;;;;;;;;;;;;;;;;;
2021/04/28 09:37:17;;;;;;;21.33;5.83;;;;;;;19.07;44.27;98305.27;124977;1101;64302;-82
2021/04/28 09:39:58;;;;;;;8.50;5.23;;;;;;;19.06;43.65;98292.77;124979;1095;64419;-80
2021/04/28 09:42:28;;;;;;;17.75;5.15;;;;;;;18.72;43.84;98295.93;125237;1101;64362;-81
2021/04/28 09:44:59;;;;;;;8.53;5.33;;;;;;;18.63;43.94;98284.28;125188;1097;64442;-81
2021/04/28 09:48:01;;;;;;;9.17;5.70;;;;;;;18.82;43.71;98279.44;124900;1096;64696;-83
2021/04/28 09:50:41;;;;;;;11.63;6.97;;;;;;;18.46;43.23;98281.90;125061;1101;64691;-82
2021/04/28 09:53:28;;;;;;;17.87;8.77;;;;;;;18.41;43.93;98266.20;124693;1101;64290;-79
2021/04/28 09:55:58;;;;;;;15.20;7.23;;;;;;;18.23;42.82;98277.30;124687;1096;64515;-78
2021/04/28 09:58:51;;;;;;;8.65;5.55;;;;;;;17.79;43.14;98261.64;124974;1096;64407;-79
2021/04/28 10:01:57;;;;;;;16.50;5.03;;;;;;;18.15;43.66;98271.11;124588;1101;64378;-81
2021/04/28 10:04:27;;;;;;;9.83;6.10;;;;;;;18.74;43.11;98265.99;124969;1101;64323;-78
2021/04/28 10:06:57;;;;;;;12.80;5.63;;;;;;;19.08;43.37;98260.94;124956;1101;64348;-84
2021/04/28 10:09:48;;;;;;;12.30;6.53;;;;;;;19.36;43.34;98249.51;124664;1096;64457;-82
2021/04/28 10:12:16;;;;;;;13.55;5.95;;;;;;;19.46;42.58;98255.47;124648;1101;64335;-79
2021/04/28 10:14:47;;;;;;;15.85;6.00;;;;;;;19.19;42.91;98254.23;124670;1101;64302;-80
2021/04/28 10:17:19;;;;;;;16.07;7.33;;;;;;;18.96;42.75;98254.31;124821;1101;64234;-80
2021/04/28 10:19:59;;;;;;;13.53;7.90;;;;;;;18.78;42.40;98259.20;125103;1096;64307;-80
2021/04/28 10:22:29;;;;;;;17.87;8.60;;;;;;;18.78;42.39;98259.20;124602;1102;64397;-80
2021/04/28 10:24:57;;;;;;;11.90;7.95;;;;;;;19.18;42.63;98255.27;124829;1096;64323;-82
2021/04/28 10:27:26;;;;;;;18.30;8.03;;;;;;;19.49;42.10;98241.58;124852;1101;64233;-81
2021/04/28 10:29:55;;;;;;;17.67;7.87;;;;;;;19.29;42.40;98235.04;124942;1101;64339;-82
2021/04/28 10:32:23;;;;;;;15.90;7.37;;;;;;;19.55;42.83;98238.12;124888;1101;64690;-81
2021/04/28 10:34:55;;;;;;;13.20;6.00;;;;;;;19.68;42.66;98242.91;124957;1101;64307;-81
2021/04/28 10:37:27;;;;;;;10.07;6.23;;;;;;;19.39;41.71;98244.55;124971;1096;64316;-81
2021/04/28 10:39:55;;;;;;;11.83;6.70;;;;;;;19.06;41.99;98237.80;124863;1101;64371;-81
2021/04/28 10:42:35;;;;;;;10.30;6.50;;;;;;;19.15;41.77;98226.72;124910;1097;64320;-82
2021/04/28 10:45:09;;;;;;;16.17;5.23;;;;;;;19.51;41.90;98233.25;124645;1101;64377;-83
2021/04/28 10:47:44;;;;;;;9.97;4.30;;;;;;;19.74;41.99;98225.06;125014;1101;64256;-80
2021/04/28 10:50:28;;;;;;;9.60;5.67;;;;;;;19.83;41.96;98232.88;128178;1101;62138;-80
2021/04/28 10:53:23;;;;;;;8.03;5.63;;;;;;;20.24;42.11;98227.74;125009;1101;64299;-84
2021/04/28 10:56:12;;;;;;;10.20;6.53;;;;;;;20.79;41.86;98222.65;124873;1101;64317;-81
2021/04/28 10:58:42;;;;;;;9.70;6.10;;;;;;;21.20;41.94;98217.34;125167;1101;64406;-81
2021/04/28 11:01:09;;;;;;;8.87;5.47;;;;;;;21.45;41.71;98216.91;124867;1095;64838;-81
2021/04/28 11:03:43;;;;;;;12.90;6.43;;;;;;;21.46;40.75;98221.29;124870;1095;64279;-79
2021/04/28 11:06:41;;;;;;;8.45;5.60;;;;;;;21.16;40.44;98216.05;124878;1101;64473;-80
2021/04/28 11:09:11;;;;;;;9.13;5.47;;;;;;;20.98;41.10;98207.56;125134;1096;64285;-81
2021/04/28 11:11:45;;;;;;;13.20;4.80;;;;;;;20.77;40.58;98224.73;124640;1096;64317;-81
2021/04/28 11:14:16;;;;;;;12.53;5.40;;;;;;;20.72;41.07;98225.30;124683;1101;64201;-83
2021/04/28 11:17:05;;;;;;;7.63;5.13;;;;;;;20.99;41.45;98214.66;124905;1096;64328;-81
2021/04/28 11:19:38;;;;;;;9.75;5.45;;;;;;;20.81;40.58;98227.91;124892;1096;64310;-81
2021/04/28 11:22:32;;;;;;;8.97;4.57;;;;;;;20.85;40.83;98218.31;124613;1096;64308;-85
2021/04/28 11:25:15;;;;;;;11.77;5.40;;;;;;;20.96;41.16;98212.36;124862;1096;64285;-82
2021/04/28 11:27:56;;;;;;;8.47;5.17;;;;;;;21.01;40.85;98209.89;125070;1097;64259;-83
2021/04/28 11:30:35;;;;;;;8.57;5.73;;;;;;;20.72;40.52;98200.05;124831;1103;64355;-82
2021/04/28 11:33:08;;;;;;;9.60;5.57;;;;;;;20.54;40.90;98195.09;124658;1096;64371;-81
2021/04/28 11:35:37;;;;;;;6.63;5.17;;;;;;;21.14;41.34;98185.55;124943;1101;64314;-84
2021/04/28 11:38:12;;;;;;;8.33;5.43;;;;;;;21.48;40.66;98194.75;124550;1096;64231;-87
2021/04/28 11:40:50;;;;;;;;;;;;;;;20.99;40.06;98195.66;124679;1095;64306;-84
2021/04/28 11:43:19;;;;;;;13.20;5.95;;;;;;;20.49;39.85;98192.98;124548;1101;64304;-84
2021/04/28 11:45:58;;;;;;;;;;;;;;;;;;;;;
2021/04/28 11:48:26;;;;;;;7.23;4.63;;;;;;;20.54;40.42;98183.41;124813;1101;64402;-85
2021/04/28 11:51:01;;;;;;;8.30;4.73;;;;;;;20.50;40.78;98182.97;124787;1096;64368;-81
2021/04/28 11:53:34;;;;;;;13.07;5.10;;;;;;;20.23;40.34;98177.27;124605;1101;64346;-86
2021/04/28 11:56:04;;;;;;;6.83;4.53;;;;;;;20.50;40.37;98177.55;124782;1102;64399;-85
2021/04/28 11:58:33;;;;;;;9.80;5.10;;;;;;;20.89;41.07;98178.91;124623;1101;64308;-86
2021/04/28 12:01:03;;;;;;;8.03;5.00;;;;;;;21.18;40.14;98175.95;124635;1101;64317;-79
2021/04/28 12:03:59;;;;;;;8.50;4.57;;;;;;;21.37;39.89;98162.72;124814;1101;64342;-84
2021/04/28 12:06:45;;;;;;;10.57;4.93;;;;;;;21.20;40.00;98168.47;124785;1096;64381;-87
2021/04/28 12:09:24;;;;;;;9.03;5.00;;;;;;;20.85;38.97;98170.30;124634;1101;64291;-84
2021/04/28 12:12:09;;;;;;;7.87;4.33;;;;;;;20.82;39.78;98159.86;124829;1096;64378;-80
2021/04/28 12:15:07;;;;;;;7.70;4.83;;;;;;;20.91;39.58;98163.25;124792;1101;64368;-80
2021/04/28 12:17:54;;;;;;;5.97;4.43;;;;;;;20.92;39.60;98154.06;124800;1096;64403;-80
2021/04/28 12:20:23;;;;;;;5.53;3.93;;;;;;;20.98;39.89;98151.40;124792;1101;64399;-85
2021/04/28 12:22:50;;;;;;;7.97;3.90;;;;;;;21.10;39.42;98150.84;124899;1096;64654;-79
2021/04/28 12:25:20;;;;;;;6.27;3.53;;;;;;;21.18;39.70;98147.96;124554;1101;64658;-84
2021/04/28 12:27:49;;;;;;;9.35;3.40;;;;;;;21.35;39.86;98140.37;124570;1096;64291;-81
2021/04/28 12:30:35;;;;;;;;;;;;;;;;;;;;;
2021/04/28 12:33:15;;;;;;;7.93;3.10;;;;;;;21.47;39.03;98136.88;124616;1096;64408;-84
2021/04/28 12:35:46;;;;;;;6.33;3.47;;;;;;;21.42;39.34;98133.09;124865;1101;64339;-81
2021/04/28 12:38:26;;;;;;;7.07;3.20;;;;;;;21.40;39.10;98135.18;124615;1096;64287;-85
2021/04/28 12:41:05;;;;;;;6.87;3.00;;;;;;;21.39;39.48;98136.22;124785;1101;64345;-88